Time;durP1;ratioP1;P1;durP2;ratioP2;P2;SDS_P1;SDS_P2;PMS_P1;PMS_P2;Temp;Humidity;BMP_temperature;BMP_pressure;BME280_temperature;BME280_humidity;BME280_pressure;Samples;Min_cycle;Max_cycle;Signal;HPM_P1;HPM_P2
2021/06/10 00:00:26;;;;;;;6.87;2.23;;;;;;;14.59;56.31;100615.98;126599;1093;22962;-54
2021/06/10 00:03:19;;;;;;;6.70;2.30;;;;;;;14.55;56.88;100618.25;126609;1093;25778;-55
2021/06/10 00:05:50;;;;;;;8.97;2.13;;;;;;;14.50;56.72;100615.41;126690;1092;26265;-58
2021/06/10 00:08:21;;;;;;;7.60;2.20;;;;;;;14.43;56.70;100618.64;126607;1093;22785;-56
2021/06/10 00:10:54;;;;;;;8.50;2.10;;;;;;;14.40;57.09;100625.27;126735;1093;22903;-56
2021/06/10 00:13:24;;;;;;;6.60;1.50;;;;;;;14.37;56.96;100620.63;126860;1093;28936;-53
2021/06/10 00:15:56;;;;;;;9.50;2.20;;;;;;;14.33;57.01;100620.08;126564;1092;26274;-58
2021/06/10 00:18:27;;;;;;;11.50;2.40;;;;;;;14.28;57.14;100620.76;126469;1092;23222;-56
2021/06/10 00:20:58;;;;;;;9.93;2.23;;;;;;;14.25;57.54;100621.77;127656;1092;22783;-59
2021/06/10 00:23:30;;;;;;;8.05;2.00;;;;;;;14.22;57.59;100622.73;128169;1093;22794;-60
2021/06/10 00:26:01;;;;;;;10.60;2.20;;;;;;;14.22;57.42;100628.36;127253;1091;22740;-58
2021/06/10 00:28:33;;;;;;;9.20;2.00;;;;;;;14.21;57.34;100626.83;126736;1093;23308;-56
2021/06/10 00:31:04;;;;;;;8.55;2.20;;;;;;;14.20;57.81;100625.27;126659;1093;25736;-55
2021/06/10 00:33:35;;;;;;;8.10;2.00;;;;;;;14.17;57.82;100631.89;126695;1093;24269;-57
2021/06/10 00:36:07;;;;;;;7.97;2.43;;;;;;;14.16;57.72;100624.72;126628;1092;25941;-54
2021/06/10 00:38:38;;;;;;;9.60;2.80;;;;;;;14.12;57.85;100627.75;126773;1092;24115;-56
2021/06/10 00:41:11;;;;;;;9.20;2.53;;;;;;;14.10;57.77;100624.67;126753;1092;24146;-54
2021/06/10 00:43:43;;;;;;;10.67;2.57;;;;;;;14.09;57.63;100619.56;126548;1093;22875;-55
2021/06/10 00:46:14;;;;;;;7.85;2.40;;;;;;;14.07;57.92;100625.64;126609;1092;22790;-56
2021/06/10 00:48:45;;;;;;;9.17;2.83;;;;;;;14.06;58.06;100626.92;126597;1092;22708;-58
2021/06/10 00:51:16;;;;;;;13.00;2.63;;;;;;;14.05;57.80;100627.43;126714;1093;22763;-56
2021/06/10 00:53:47;;;;;;;9.00;2.50;;;;;;;14.00;58.18;100630.93;126658;1091;22760;-56
2021/06/10 00:56:19;;;;;;;9.10;2.60;;;;;;;13.95;58.13;100629.59;126575;1093;26265;-55
2021/06/10 00:58:52;;;;;;;12.60;3.17;;;;;;;13.92;58.14;100627.80;126647;1093;28378;-56
2021/06/10 01:01:24;;;;;;;10.23;2.90;;;;;;;13.90;58.41;100627.52;126588;1093;22791;-56
2021/06/10 01:03:55;;;;;;;11.10;2.67;;;;;;;13.90;58.64;100623.93;126910;1093;22842;-57
2021/06/10 01:06:31;;;;;;;10.87;2.87;;;;;;;13.88;58.06;100629.27;126674;1092;26341;-57
2021/06/10 01:09:05;;;;;;;9.40;2.45;;;;;;;13.85;58.73;100624.63;126682;1092;23204;-56
2021/06/10 01:11:45;;;;;;;8.87;2.90;;;;;;;13.84;58.75;100631.52;126580;1093;22764;-56
2021/06/10 01:14:30;;;;;;;10.53;2.70;;;;;;;13.78;58.68;100632.20;126658;1092;24155;-56
2021/06/10 01:17:02;;;;;;;12.20;3.40;;;;;;;13.71;59.14;100635.45;126780;1093;22764;-57
2021/06/10 01:19:54;;;;;;;9.27;2.80;;;;;;;13.63;58.99;100627.95;126589;1093;22801;-57
2021/06/10 01:22:40;;;;;;;10.10;2.95;;;;;;;13.58;59.35;100632.22;126590;1093;23492;-57
2021/06/10 01:25:26;;;;;;;13.40;2.60;;;;;;;13.52;59.50;100624.98;126773;1093;22808;-53
2021/06/10 01:27:59;;;;;;;8.55;2.40;;;;;;;13.46;60.00;100619.31;126744;1093;22706;-56
2021/06/10 01:30:34;;;;;;;9.00;2.20;;;;;;;13.41;59.72;100614.39;126672;1093;26566;-56
2021/06/10 01:33:11;;;;;;;9.83;2.50;;;;;;;13.41;59.92;100627.63;126568;1093;22768;-59
2021/06/10 01:36:01;;;;;;;8.80;2.80;;;;;;;13.38;59.73;100628.63;126708;1093;22725;-55
2021/06/10 01:38:32;;;;;;;11.55;2.83;;;;;;;13.32;60.10;100624.97;126507;1093;27125;-58
2021/06/10 01:41:04;;;;;;;7.45;2.55;;;;;;;13.25;60.38;100628.95;126640;1093;22779;-54
2021/06/10 01:43:37;;;;;;;9.70;3.30;;;;;;;13.19;60.81;100628.11;126675;1093;22782;-53
2021/06/10 01:46:11;;;;;;;12.05;2.70;;;;;;;13.16;60.42;100626.27;126632;1092;22821;-55
2021/06/10 01:48:44;;;;;;;7.93;2.30;;;;;;;13.14;60.66;100625.98;126801;1093;22745;-57
2021/06/10 01:51:17;;;;;;;10.57;3.17;;;;;;;13.14;60.73;100622.42;126706;1092;22747;-55
2021/06/10 01:53:49;;;;;;;9.55;2.50;;;;;;;13.12;60.71;100620.09;126690;1093;23314;-57
2021/06/10 01:56:23;;;;;;;11.65;3.10;;;;;;;13.11;60.78;100620.59;126634;1092;25765;-56
2021/06/10 01:58:56;;;;;;;9.20;2.65;;;;;;;13.08;60.77;100613.91;126701;1092;22735;-57
2021/06/10 02:01:29;;;;;;;10.27;2.87;;;;;;;13.06;60.81;100610.05;126595;1092;23775;-54
2021/06/10 02:04:02;;;;;;;14.27;3.13;;;;;;;13.03;60.87;100611.02;126593;1093;22775;-57
2021/06/10 02:06:34;;;;;;;8.35;2.70;;;;;;;12.98;60.92;100609.66;126745;1092;22938;-55
2021/06/10 02:09:07;;;;;;;11.25;3.50;;;;;;;12.97;61.17;100610.94;126740;1093;22835;-59
2021/06/10 02:11:39;;;;;;;8.50;2.85;;;;;;;12.93;60.90;100613.17;126510;1093;22728;-55
2021/06/10 02:14:11;;;;;;;13.20;2.40;;;;;;;12.91;61.10;100610.83;126667;1093;22707;-57
2021/06/10 02:16:44;;;;;;;7.70;2.20;;;;;;;12.90;61.43;100612.11;126762;1093;24416;-57
2021/06/10 02:19:17;;;;;;;11.43;2.50;;;;;;;12.89;61.40;100612.60;126624;1092;25902;-57
2021/06/10 02:21:48;;;;;;;6.37;1.87;;;;;;;12.86;61.58;100617.14;126592;1093;22849;-60
2021/06/10 02:24:19;;;;;;;9.10;2.50;;;;;;;12.85;61.89;100604.38;126608;1093;22768;-55
2021/06/10 02:26:50;;;;;;;9.50;2.50;;;;;;;12.83;61.71;100612.49;126603;1093;22760;-56
2021/06/10 02:29:22;;;;;;;8.80;2.70;;;;;;;12.83;61.84;100617.31;126515;1093;22897;-56
2021/06/10 02:31:53;;;;;;;12.60;2.80;;;;;;;12.82;62.39;100621.39;126664;1092;23059;-57
2021/06/10 02:34:24;;;;;;;10.10;2.60;;;;;;;12.81;61.94;100606.60;126713;1092;22921;-56
2021/06/10 02:36:56;;;;;;;10.73;2.23;;;;;;;12.78;62.52;100618.80;126686;1093;22760;-55
2021/06/10 02:39:28;;;;;;;10.20;2.60;;;;;;;12.77;62.99;100619.27;126595;1093;22803;-56
2021/06/10 02:42:01;;;;;;;8.83;2.80;;;;;;;12.74;62.90;100623.83;126631;1092;25755;-57
2021/06/10 02:44:33;;;;;;;9.70;2.57;;;;;;;12.67;63.43;100618.61;126570;1092;26182;-54
2021/06/10 02:47:07;;;;;;;8.70;3.20;;;;;;;12.62;63.51;100616.47;126667;1093;22761;-53
2021/06/10 02:49:41;;;;;;;8.30;2.45;;;;;;;12.56;63.66;100621.21;126708;1092;24156;-58
2021/06/10 02:52:14;;;;;;;9.35;2.65;;;;;;;12.50;63.72;100620.34;126889;1092;22767;-56
2021/06/10 02:54:47;;;;;;;8.27;2.57;;;;;;;12.49;63.56;100618.04;126573;1092;27394;-57
2021/06/10 02:57:24;;;;;;;10.87;2.63;;;;;;;12.48;64.11;100624.88;126688;1093;22845;-53
2021/06/10 02:59:56;;;;;;;10.30;2.57;;;;;;;12.45;63.63;100623.06;126758;1092;22826;-58
2021/06/10 03:02:28;;;;;;;10.47;2.70;;;;;;;12.42;63.99;100624.02;126791;1093;26549;-56
2021/06/10 03:04:59;;;;;;;8.30;2.63;;;;;;;12.41;64.04;100628.86;126718;1092;22864;-56
2021/06/10 03:07:30;;;;;;;8.15;2.20;;;;;;;12.38;64.25;100637.43;126665;1093;22771;-57
2021/06/10 03:10:02;;;;;;;8.70;2.43;;;;;;;12.35;64.29;100633.59;126674;1092;22733;-55
2021/06/10 03:12:34;;;;;;;9.50;2.20;;;;;;;12.34;64.30;100629.23;126773;1093;27153;-58
2021/06/10 03:15:08;;;;;;;8.37;2.47;;;;;;;12.34;64.41;100625.66;126547;1093;24169;-56
2021/06/10 03:17:40;;;;;;;8.67;2.47;;;;;;;12.35;64.21;100627.99;126631;1092;26248;-56
2021/06/10 03:20:14;;;;;;;7.53;2.20;;;;;;;12.37;64.32;100625.48;126589;1092;22761;-56
2021/06/10 03:22:46;;;;;;;8.80;2.40;;;;;;;12.41;64.28;100630.88;126634;1092;24562;-56
2021/06/10 03:25:19;;;;;;;8.90;2.63;;;;;;;12.44;64.11;100635.50;126626;1093;22780;-57
2021/06/10 03:27:51;;;;;;;10.00;2.43;;;;;;;12.47;64.03;100632.53;126620;1093;22785;-55
2021/06/10 03:30:23;;;;;;;11.05;2.90;;;;;;;12.48;64.54;100625.66;126690;1091;22831;-55
2021/06/10 03:32:55;;;;;;;11.80;2.57;;;;;;;12.49;64.19;100630.02;126925;1093;22839;-55
2021/06/10 03:35:27;;;;;;;9.93;2.77;;;;;;;12.51;64.67;100621.13;126604;1093;27112;-53
2021/06/10 03:37:59;;;;;;;13.10;3.30;;;;;;;12.50;64.89;100625.95;126694;1089;22791;-54
2021/06/10 03:40:31;;;;;;;8.20;2.10;;;;;;;12.53;64.52;100627.02;126741;1092;24455;-57
2021/06/10 03:43:04;;;;;;;10.15;2.60;;;;;;;12.56;65.00;100626.06;126874;1092;24319;-55
2021/06/10 03:45:36;;;;;;;9.20;2.10;;;;;;;12.58;64.69;100629.16;126591;1093;22785;-56
2021/06/10 03:48:10;;;;;;;8.83;3.03;;;;;;;12.61;65.02;100630.97;126726;1090;22794;-57
2021/06/10 03:50:42;;;;;;;11.87;2.63;;;;;;;12.64;64.83;100630.77;126623;1093;22770;-54
2021/06/10 03:53:13;;;;;;;11.05;2.50;;;;;;;12.70;65.04;100630.88;126643;1093;22799;-59
2021/06/10 03:55:45;;;;;;;9.20;2.93;;;;;;;12.75;64.64;100622.55;126699;1093;22710;-56
2021/06/10 03:58:16;;;;;;;11.97;2.67;;;;;;;12.82;64.32;100621.39;126627;1092;27555;-57
2021/06/10 04:00:47;;;;;;;13.80;3.53;;;;;;;12.89;65.39;100627.36;126585;1092;27338;-56
2021/06/10 04:03:20;;;;;;;16.60;4.60;;;;;;;12.96;66.64;100620.59;126514;1092;27401;-60
2021/06/10 04:05:51;;;;;;;13.37;3.33;;;;;;;13.02;65.61;100621.44;126586;1093;22785;-58
2021/06/10 04:08:22;;;;;;;18.17;3.77;;;;;;;13.09;66.24;100615.48;128263;1093;22740;-59
2021/06/10 04:10:53;;;;;;;15.13;5.37;;;;;;;13.17;66.88;100619.41;128003;1093;22744;-59
2021/06/10 04:13:24;;;;;;;13.30;4.37;;;;;;;13.26;66.61;100613.69;126614;1092;27204;-56
2021/06/10 04:15:55;;;;;;;14.10;4.50;;;;;;;13.33;66.83;100615.28;126672;1093;22852;-54
2021/06/10 04:18:26;;;;;;;12.30;3.97;;;;;;;13.44;66.06;100629.47;126348;1093;22764;-54
2021/06/10 04:20:58;;;;;;;11.25;3.90;;;;;;;13.52;66.58;100636.20;126484;1093;22872;-57
2021/06/10 04:23:31;;;;;;;13.13;4.27;;;;;;;13.63;67.56;100630.75;126871;1092;22865;-56
2021/06/10 04:26:02;;;;;;;13.53;5.40;;;;;;;13.73;67.42;100632.92;126658;1093;22842;-58
2021/06/10 04:28:33;;;;;;;17.20;4.50;;;;;;;13.86;67.82;100643.02;126544;1093;26239;-56
2021/06/10 04:31:04;;;;;;;16.40;5.40;;;;;;;13.97;68.31;100651.55;126614;1093;22793;-58
2021/06/10 04:33:36;;;;;;;15.80;5.40;;;;;;;14.09;68.58;100636.41;126587;1093;22799;-56
2021/06/10 04:36:07;;;;;;;14.65;6.05;;;;;;;14.22;69.24;100645.20;126492;1093;22768;-55
2021/06/10 04:38:39;;;;;;;13.67;5.33;;;;;;;14.34;68.58;100636.43;126662;1092;24358;-57
2021/06/10 04:41:10;;;;;;;16.05;4.55;;;;;;;14.48;68.39;100631.98;126517;1093;25513;-59
2021/06/10 04:43:41;;;;;;;17.47;4.93;;;;;;;14.61;68.43;100629.53;126478;1093;22701;-54
2021/06/10 04:46:12;;;;;;;10.50;3.75;;;;;;;14.75;68.42;100637.08;126476;1093;24500;-59
2021/06/10 04:48:43;;;;;;;16.25;5.05;;;;;;;14.90;68.26;100625.67;126311;1092;22710;-56
2021/06/10 04:51:15;;;;;;;14.10;5.10;;;;;;;15.04;68.27;100624.78;126222;1093;22764;-57
2021/06/10 04:53:49;;;;;;;13.50;4.45;;;;;;;15.15;67.84;100624.83;126176;1092;22725;-59
2021/06/10 04:56:20;;;;;;;15.67;4.40;;;;;;;15.29;68.33;100623.92;126214;1093;22806;-56
2021/06/10 04:58:51;;;;;;;13.50;4.70;;;;;;;15.40;68.61;100624.74;126424;1092;24320;-57
2021/06/10 05:01:24;;;;;;;11.90;4.05;;;;;;;15.56;68.44;100614.12;126272;1093;22791;-57
2021/06/10 05:03:55;;;;;;;13.80;4.07;;;;;;;15.68;68.13;100627.73;126291;1091;26276;-56
2021/06/10 05:06:26;;;;;;;12.23;4.00;;;;;;;15.83;68.16;100625.47;126268;1093;30774;-54
2021/06/10 05:08:58;;;;;;;13.15;4.05;;;;;;;15.96;67.75;100625.01;126417;1092;23102;-57
2021/06/10 05:11:29;;;;;;;13.90;3.70;;;;;;;16.12;67.47;100627.88;126349;1093;25892;-56
2021/06/10 05:14:00;;;;;;;9.83;3.53;;;;;;;16.29;67.02;100624.32;126466;1093;22921;-58
2021/06/10 05:16:44;;;;;;;11.35;3.30;;;;;;;16.43;66.90;100621.27;126413;1093;27208;-58
2021/06/10 05:19:18;;;;;;;17.40;3.65;;;;;;;16.60;66.79;100627.73;125979;1091;22848;-56
2021/06/10 05:21:49;;;;;;;21.10;3.75;;;;;;;16.76;66.61;100621.32;125972;1091;22804;-56
2021/06/10 05:24:23;;;;;;;23.55;4.20;;;;;;;16.91;66.51;100627.48;125930;1093;22783;-57
2021/06/10 05:26:55;;;;;;;15.27;3.57;;;;;;;17.06;66.70;100629.25;125979;1093;26941;-54
2021/06/10 05:29:26;;;;;;;13.33;3.33;;;;;;;17.18;66.35;100620.27;125890;1093;26530;-57
2021/06/10 05:31:58;;;;;;;9.67;3.17;;;;;;;17.34;65.75;100627.91;126523;1090;22790;-57
2021/06/10 05:34:29;;;;;;;12.50;3.70;;;;;;;17.48;65.44;100624.05;126473;1090;25687;-58
2021/06/10 05:37:00;;;;;;;14.55;3.50;;;;;;;17.64;65.24;100626.08;125857;1090;22766;-57
2021/06/10 05:39:32;;;;;;;12.40;3.43;;;;;;;17.79;65.16;100626.51;125873;1089;26207;-57
2021/06/10 05:42:03;;;;;;;9.50;3.00;;;;;;;17.94;64.67;100628.27;125920;1090;25932;-58
2021/06/10 05:44:34;;;;;;;11.15;3.15;;;;;;;18.07;64.15;100626.39;125890;1090;22794;-58
2021/06/10 05:47:06;;;;;;;14.10;3.65;;;;;;;18.19;64.14;100619.38;125699;1090;22808;-58
2021/06/10 05:49:37;;;;;;;16.60;3.25;;;;;;;18.31;64.02;100615.19;125967;1088;22842;-58
2021/06/10 05:52:12;;;;;;;8.65;2.55;;;;;;;18.44;63.28;100621.05;125874;1090;23526;-58
2021/06/10 05:54:48;;;;;;;9.27;2.40;;;;;;;18.56;62.77;100621.72;125920;1092;26172;-58
2021/06/10 05:57:19;;;;;;;10.25;2.45;;;;;;;18.67;62.72;100624.48;125849;1090;25251;-58
2021/06/10 05:59:50;;;;;;;11.37;2.77;;;;;;;18.77;62.29;100619.25;125972;1093;23094;-58
2021/06/10 06:02:21;;;;;;;7.67;1.60;;;;;;;18.90;61.56;100614.52;125923;1090;22848;-57
2021/06/10 06:04:52;;;;;;;8.73;2.00;;;;;;;19.01;60.76;100620.09;125866;1093;22934;-58
2021/06/10 06:07:23;;;;;;;11.60;1.70;;;;;;;19.12;60.65;100610.70;125767;1093;24574;-57
2021/06/10 06:09:55;;;;;;;8.90;2.20;;;;;;;19.20;60.68;100606.75;125729;1090;22742;-58
2021/06/10 06:12:26;;;;;;;8.80;1.80;;;;;;;19.31;60.29;100600.21;130163;1090;22542;-59
2021/06/10 06:14:56;;;;;;;8.35;1.80;;;;;;;19.40;59.97;100588.56;130126;1090;22512;-59
2021/06/10 06:17:27;;;;;;;6.20;1.85;;;;;;;19.51;59.55;100596.17;127088;1090;22893;-58
2021/06/10 06:20:00;;;;;;;12.55;2.10;;;;;;;19.60;59.19;100605.06;125852;1090;22832;-57
2021/06/10 06:22:31;;;;;;;6.20;1.77;;;;;;;19.71;59.36;100602.09;125955;1090;23046;-58
2021/06/10 06:25:03;;;;;;;8.60;1.60;;;;;;;19.81;59.40;100603.25;125898;1093;22840;-58
2021/06/10 06:27:34;;;;;;;11.10;2.05;;;;;;;19.90;59.16;100608.55;126007;1090;25810;-56
2021/06/10 06:30:07;;;;;;;9.10;1.60;;;;;;;20.01;58.61;100599.88;125934;1089;22791;-58
2021/06/10 06:32:38;;;;;;;9.10;1.60;;;;;;;20.14;58.80;100602.03;125943;1090;24580;-58
2021/06/10 06:35:12;;;;;;;7.95;1.80;;;;;;;20.28;58.80;100600.82;125983;1090;22841;-58
2021/06/10 06:37:42;;;;;;;5.60;1.70;;;;;;;20.40;58.46;100615.61;125932;1090;22887;-58
2021/06/10 06:40:15;;;;;;;8.95;1.60;;;;;;;20.50;58.30;100606.17;125984;1089;22836;-59
2021/06/10 06:42:46;;;;;;;8.65;2.20;;;;;;;20.62;58.59;100607.52;126000;1090;22851;-59
2021/06/10 06:45:17;;;;;;;8.40;1.50;;;;;;;20.72;57.85;100616.38;125967;1090;22848;-59
2021/06/10 06:47:48;;;;;;;10.07;1.67;;;;;;;20.78;57.12;100614.98;126068;1093;27246;-58
2021/06/10 06:50:19;;;;;;;10.70;1.30;;;;;;;20.83;56.72;100610.53;125885;1093;22767;-57
2021/06/10 06:52:50;;;;;;;6.65;1.30;;;;;;;20.87;56.86;100602.46;125892;1090;22793;-58
2021/06/10 06:55:23;;;;;;;6.80;1.43;;;;;;;20.94;56.36;100611.09;125890;1090;22764;-58
2021/06/10 06:57:55;;;;;;;8.05;1.60;;;;;;;21.05;55.83;100607.33;125954;1090;22781;-58
2021/06/10 07:00:26;;;;;;;8.05;1.40;;;;;;;21.10;56.02;100606.47;125928;1090;28517;-58
2021/06/10 07:02:58;;;;;;;6.77;1.30;;;;;;;21.19;55.83;100596.77;126024;1090;22747;-58
2021/06/10 07:05:29;;;;;;;5.28;1.30;;;;;;;21.27;55.13;100600.48;126095;1089;22982;-59
2021/06/10 07:08:00;;;;;;;6.10;1.35;;;;;;;21.31;55.00;100598.83;126034;1089;22787;-58
2021/06/10 07:10:31;;;;;;;6.50;1.40;;;;;;;21.38;55.17;100603.86;125922;1090;25856;-58
2021/06/10 07:13:02;;;;;;;4.43;1.10;;;;;;;21.52;54.99;100596.09;125928;1088;22757;-58
2021/06/10 07:15:34;;;;;;;9.10;1.30;;;;;;;21.69;54.25;100602.21;125859;1089;22915;-58
2021/06/10 07:18:05;;;;;;;6.08;1.00;;;;;;;21.80;53.61;100612.59;125884;1093;27147;-58
2021/06/10 07:20:36;;;;;;;4.35;1.00;;;;;;;21.86;51.90;100602.66;125905;1090;22794;-58
2021/06/10 07:23:07;;;;;;;2.53;0.80;;;;;;;21.93;52.63;100612.61;125871;1090;22841;-58
2021/06/10 07:25:39;;;;;;;6.78;0.80;;;;;;;22.03;52.20;100613.67;125790;1090;26735;-58
2021/06/10 07:28:10;;;;;;;4.18;0.90;;;;;;;22.13;51.60;100611.89;125971;1089;22778;-58
2021/06/10 07:30:41;;;;;;;4.85;0.80;;;;;;;22.20;51.21;100608.39;125948;1090;22790;-58
2021/06/10 07:33:12;;;;;;;5.68;1.03;;;;;;;22.25;50.56;100613.94;125887;1090;22814;-58
2021/06/10 07:35:43;;;;;;;6.58;1.28;;;;;;;22.34;50.50;100610.64;125857;1090;22800;-58
2021/06/10 07:38:15;;;;;;;6.00;1.15;;;;;;;22.46;50.73;100617.59;125995;1090;22738;-58
2021/06/10 07:40:46;;;;;;;3.68;1.18;;;;;;;22.53;50.55;100630.38;125923;1090;22774;-58
2021/06/10 07:43:17;;;;;;;3.70;0.88;;;;;;;22.58;50.17;100632.34;125884;1090;22767;-58
2021/06/10 07:45:48;;;;;;;9.23;1.00;;;;;;;22.60;49.87;100632.55;125947;1090;27135;-58
2021/06/10 07:48:20;;;;;;;5.97;1.10;;;;;;;22.53;48.66;100633.96;125845;1090;22842;-58
2021/06/10 07:50:52;;;;;;;7.20;1.10;;;;;;;22.46;48.81;100640.35;125934;1090;22786;-58
2021/06/10 07:53:23;;;;;;;7.37;1.10;;;;;;;22.45;48.74;100646.60;125900;1088;24251;-58
2021/06/10 07:55:56;;;;;;;8.00;1.13;;;;;;;22.42;49.49;100651.31;125841;1090;22711;-60
2021/06/10 07:58:27;;;;;;;5.98;1.05;;;;;;;22.36;48.49;100639.30;125902;1089;22754;-59
2021/06/10 08:00:58;;;;;;;6.00;1.00;;;;;;;22.33;48.15;100648.15;125880;1089;23283;-59
2021/06/10 08:03:29;;;;;;;9.08;1.10;;;;;;;22.31;48.83;100645.09;125963;1093;22769;-59
2021/06/10 08:06:01;;;;;;;6.68;1.13;;;;;;;22.30;49.00;100654.95;125912;1090;22780;-59
2021/06/10 08:08:32;;;;;;;11.38;1.65;;;;;;;22.33;48.85;100656.68;125917;1090;22787;-59
2021/06/10 08:11:06;;;;;;;11.68;2.13;;;;;;;22.33;48.59;100665.22;125937;1090;22794;-59
2021/06/10 08:13:37;;;;;;;13.33;2.03;;;;;;;22.13;50.13;100674.45;125830;1090;22889;-59
2021/06/10 08:16:08;;;;;;;11.73;2.57;;;;;;;21.91;50.58;100667.17;125782;1093;22764;-59
2021/06/10 08:18:39;;;;;;;16.68;2.13;;;;;;;21.73;50.76;100680.14;126006;1090;22751;-59
2021/06/10 08:21:11;;;;;;;12.45;2.55;;;;;;;21.57;51.31;100684.08;125839;1090;25935;-59
2021/06/10 08:23:42;;;;;;;7.50;2.50;;;;;;;21.35;50.93;100681.66;125935;1090;22777;-59
2021/06/10 08:26:13;;;;;;;10.48;2.40;;;;;;;21.21;51.35;100679.33;125831;1090;22781;-59
2021/06/10 08:28:44;;;;;;;13.23;2.60;;;;;;;21.09;51.57;100687.26;125937;1089;22842;-59
2021/06/10 08:31:16;;;;;;;11.35;2.20;;;;;;;21.01;51.96;100691.23;125878;1088;22835;-59
2021/06/10 08:33:47;;;;;;;8.40;2.20;;;;;;;20.90;52.20;100698.63;125916;1090;22764;-59
2021/06/10 08:36:19;;;;;;;11.70;2.77;;;;;;;20.82;52.03;100696.95;125892;1090;27155;-59
2021/06/10 08:38:51;;;;;;;8.77;2.37;;;;;;;20.75;52.58;100704.02;125956;1089;22784;-59
2021/06/10 08:41:24;;;;;;;23.60;2.97;;;;;;;20.63;52.30;100702.66;126003;1090;22764;-59
2021/06/10 08:43:57;;;;;;;10.48;2.40;;;;;;;20.54;52.75;100714.41;125943;1092;25751;-59
2021/06/10 08:46:31;;;;;;;8.55;2.40;;;;;;;20.49;53.15;100711.63;125995;1092;22800;-63
2021/06/10 08:49:04;;;;;;;10.88;2.35;;;;;;;20.37;52.88;100724.43;125981;1089;22760;-60
2021/06/10 08:51:37;;;;;;;5.23;1.58;;;;;;;20.24;52.83;100721.50;126026;1090;27315;-61
2021/06/10 08:54:09;;;;;;;8.50;2.37;;;;;;;20.12;52.72;100715.19;126029;1090;22854;-61
2021/06/10 08:56:43;;;;;;;10.90;1.98;;;;;;;20.06;53.05;100709.59;125975;1089;22751;-61
2021/06/10 08:59:14;;;;;;;9.33;2.20;;;;;;;19.98;54.45;100713.56;125911;1090;26127;-63
2021/06/10 09:01:46;;;;;;;7.83;1.70;;;;;;;19.84;54.19;100726.09;125839;1090;22796;-63
2021/06/10 09:04:17;;;;;;;7.53;1.75;;;;;;;19.71;54.63;100723.91;125868;1090;22790;-63
2021/06/10 09:06:50;;;;;;;5.70;1.43;;;;;;;19.58;55.67;100723.77;126094;1088;22820;-62
2021/06/10 09:09:32;;;;;;;7.67;1.80;;;;;;;19.54;56.15;100720.47;125942;1090;22790;-62
2021/06/10 09:12:06;;;;;;;5.43;1.70;;;;;;;19.47;56.73;100728.79;125880;1093;22774;-62
2021/06/10 09:14:54;;;;;;;8.23;1.90;;;;;;;19.43;57.34;100723.40;125903;1090;26361;-64
2021/06/10 09:17:33;;;;;;;8.97;2.40;;;;;;;19.41;57.56;100739.41;125901;1090;22819;-62
2021/06/10 09:20:27;;;;;;;7.13;2.00;;;;;;;19.35;57.30;100742.27;126039;1090;23032;-62
2021/06/10 09:23:28;;;;;;;10.40;2.53;;;;;;;19.33;57.94;100742.00;126003;1090;22851;-59
2021/06/10 09:26:04;;;;;;;5.23;1.87;;;;;;;19.32;58.19;100737.64;125989;1092;22800;-59
2021/06/10 09:28:39;;;;;;;6.43;2.00;;;;;;;19.31;57.92;100741.75;126277;1093;22996;-59
2021/06/10 09:31:10;;;;;;;7.65;1.70;;;;;;;19.21;57.94;100737.73;126057;1093;24596;-58
2021/06/10 09:33:43;;;;;;;7.75;2.08;;;;;;;19.13;58.42;100740.38;126080;1090;22795;-59
2021/06/10 09:36:20;;;;;;;6.50;2.15;;;;;;;19.17;58.37;100743.69;125930;1092;22913;-59
2021/06/10 09:39:07;;;;;;;6.77;2.00;;;;;;;19.15;58.70;100748.33;125959;1093;22895;-59
2021/06/10 09:42:02;;;;;;;8.05;2.15;;;;;;;19.09;58.83;100754.05;126005;1092;24448;-59
2021/06/10 09:44:42;;;;;;;5.65;1.55;;;;;;;19.13;59.56;100753.75;125976;1090;26940;-59
2021/06/10 09:47:13;;;;;;;6.35;1.50;;;;;;;19.13;58.77;100750.92;125984;1090;22796;-58
2021/06/10 09:49:44;;;;;;;6.23;1.60;;;;;;;19.14;58.56;100746.81;126018;1089;22777;-59
2021/06/10 09:52:15;;;;;;;4.77;1.20;;;;;;;19.15;58.41;100742.67;126026;1090;22769;-59
2021/06/10 09:54:50;;;;;;;5.70;1.23;;;;;;;19.15;58.46;100726.46;125922;1090;27610;-59
2021/06/10 09:57:22;;;;;;;3.43;1.10;;;;;;;19.19;58.43;100701.47;126104;1090;27306;-57
2021/06/10 09:59:54;;;;;;;3.33;1.17;;;;;;;19.18;59.09;100676.53;125980;1090;22776;-59
2021/06/10 10:02:29;;;;;;;3.25;1.05;;;;;;;19.19;58.59;100666.73;126424;1089;27207;-58
2021/06/10 10:05:06;;;;;;;7.83;1.40;;;;;;;19.18;59.02;100668.04;125985;1093;22793;-59
2021/06/10 10:07:39;;;;;;;8.40;1.75;;;;;;;19.19;59.33;100689.38;126226;1090;22842;-58
2021/06/10 10:10:13;;;;;;;4.20;1.33;;;;;;;19.19;60.02;100678.05;125968;1089;22880;-60
2021/06/10 10:12:45;;;;;;;5.43;1.40;;;;;;;19.18;59.95;100685.02;126119;1090;22773;-58
2021/06/10 10:15:17;;;;;;;4.83;1.40;;;;;;;19.17;60.06;100689.13;126142;1093;22826;-58
2021/06/10 10:17:49;;;;;;;4.50;1.30;;;;;;;19.14;59.95;100710.02;126031;1093;22906;-58
2021/06/10 10:20:21;;;;;;;4.63;1.20;;;;;;;19.13;60.44;100716.95;126072;1089;22791;-59
2021/06/10 10:22:52;;;;;;;5.37;1.20;;;;;;;19.05;60.25;100721.66;126018;1093;23515;-58
2021/06/10 10:25:23;;;;;;;3.40;1.10;;;;;;;19.01;60.59;100727.61;125930;1090;22836;-58
2021/06/10 10:27:55;;;;;;;3.80;1.20;;;;;;;18.99;60.86;100721.71;125839;1090;25810;-58
2021/06/10 10:30:27;;;;;;;4.23;1.20;;;;;;;19.04;61.02;100717.27;125938;1093;25518;-59
2021/06/10 10:32:58;;;;;;;4.03;1.10;;;;;;;19.09;60.78;100713.65;126023;1090;22777;-59
2021/06/10 10:35:33;;;;;;;4.55;1.20;;;;;;;19.18;60.61;100705.58;125939;1089;24802;-58
2021/06/10 10:38:13;;;;;;;3.40;1.13;;;;;;;19.27;60.98;100699.59;126020;1090;22761;-58
2021/06/10 10:40:53;;;;;;;5.57;1.60;;;;;;;19.38;61.03;100704.41;125895;1090;22757;-59
2021/06/10 10:43:22;;;;;;;;;;;;;;;19.47;61.26;100689.15;126056;1090;22858;-58
2021/06/10 10:46:10;;;;;;;3.25;0.95;;;;;;;19.55;60.57;100682.38;125966;1090;24707;-58
2021/06/10 10:48:44;;;;;;;4.00;1.10;;;;;;;19.63;60.23;100671.98;125915;1090;22778;-58
2021/06/10 10:51:30;;;;;;;3.25;0.90;;;;;;;19.69;59.89;100671.91;125937;1090;27196;-58
2021/06/10 10:54:03;;;;;;;4.70;1.00;;;;;;;19.75;59.61;100650.72;125904;1090;22736;-59
2021/06/10 10:56:39;;;;;;;5.00;1.33;;;;;;;19.85;60.09;100653.94;126059;1089;22854;-57
2021/06/10 10:59:18;;;;;;;3.15;1.00;;;;;;;19.92;60.06;100648.45;126054;1090;23056;-58
2021/06/10 11:02:04;;;;;;;3.30;0.90;;;;;;;20.04;59.41;100643.41;125967;1090;27338;-58
2021/06/10 11:04:50;;;;;;;3.00;1.00;;;;;;;20.18;58.85;100645.01;125994;1089;22781;-59
2021/06/10 11:07:55;;;;;;;4.60;1.10;;;;;;;20.35;59.07;100650.48;126058;1090;22758;-58
2021/06/10 11:11:09;;;;;;;4.65;1.00;;;;;;;20.54;58.20;100642.72;126062;1090;22868;-58
2021/06/10 11:13:50;;;;;;;3.03;0.83;;;;;;;20.72;56.93;100641.91;125997;1090;22832;-60
2021/06/10 11:16:22;;;;;;;2.00;0.50;;;;;;;20.80;55.62;100632.23;125895;1088;22761;-57
2021/06/10 11:18:57;;;;;;;2.87;0.60;;;;;;;20.86;55.35;100634.97;126020;1089;22795;-59
2021/06/10 11:21:53;;;;;;;4.28;0.65;;;;;;;20.93;55.47;100634.34;125823;1090;22768;-58
2021/06/10 11:24:27;;;;;;;4.93;1.00;;;;;;;20.98;55.23;100624.98;126435;1090;23005;-57
2021/06/10 11:27:06;;;;;;;3.03;0.83;;;;;;;21.06;55.22;100625.91;126025;1090;28382;-60
2021/06/10 11:30:16;;;;;;;3.20;0.83;;;;;;;21.12;54.85;100626.56;125957;1089;22883;-58
2021/06/10 11:32:57;;;;;;;;;;;;;;;21.18;54.22;100612.27;125927;1090;26050;-58
2021/06/10 11:35:37;;;;;;;3.00;0.73;;;;;;;21.22;54.53;100609.86;125950;1090;25674;-58
2021/06/10 11:38:14;;;;;;;4.00;0.70;;;;;;;21.25;53.98;100618.05;125936;1090;22797;-58
2021/06/10 11:40:47;;;;;;;6.78;0.90;;;;;;;21.28;54.15;100614.13;125931;1090;25842;-58
2021/06/10 11:43:20;;;;;;;6.38;0.80;;;;;;;21.33;53.44;100599.05;125959;1090;22928;-58